createdAt,value
2023-02-02T00:02:03.112Z,1.95
2023-02-02T00:04:33.276Z,1.88
2023-02-02T00:07:01.416Z,2.00
2023-02-02T00:09:29.910Z,1.98
2023-02-02T00:11:57.554Z,2.03
2023-02-02T00:14:25.227Z,1.10
2023-02-02T00:16:56.793Z,1.48
2023-02-02T00:19:27.411Z,3.03
2023-02-02T00:21:55.120Z,1.98
2023-02-02T00:24:22.785Z,1.52
2023-02-02T00:26:52.566Z,1.85
2023-02-02T00:29:25.756Z,1.90
2023-02-02T00:31:53.158Z,1.45
2023-02-02T00:34:20.498Z,1.63
2023-02-02T00:36:48.260Z,2.38
2023-02-02T00:39:18.774Z,2.13
2023-02-02T00:41:46.412Z,1.88
2023-02-02T00:44:32.234Z,1.40
2023-02-02T00:46:59.964Z,2.22
2023-02-02T00:49:26.719Z,2.15
2023-02-02T00:51:53.448Z,1.95
2023-02-02T00:54:20.191Z,1.92
2023-02-02T00:56:47.114Z,1.88
2023-02-02T00:59:14.027Z,2.13
2023-02-02T01:01:40.869Z,1.50
2023-02-02T01:04:07.664Z,2.38
2023-02-02T01:06:34.817Z,1.90
2023-02-02T01:09:02.678Z,3.58
2023-02-02T01:11:33.714Z,1.55
2023-02-02T01:14:00.543Z,2.58
2023-02-02T01:16:27.353Z,1.50
2023-02-02T01:18:54.375Z,1.63
2023-02-02T01:21:21.354Z,2.83
2023-02-02T01:23:48.681Z,2.60
2023-02-02T01:26:16.396Z,1.77
2023-02-02T01:28:43.643Z,2.78
2023-02-02T01:31:16.794Z,3.55
2023-02-02T01:33:45.107Z,1.45
2023-02-02T01:36:15.494Z,1.67
2023-02-02T01:38:42.531Z,1.85
2023-02-02T01:41:13.360Z,2.45
2023-02-02T01:43:43.165Z,1.75
2023-02-02T01:46:19.043Z,2.40
2023-02-02T01:48:55.267Z,1.83
2023-02-02T01:51:26.093Z,3.20
2023-02-02T01:53:56.249Z,1.80
2023-02-02T01:56:35.043Z,1.92
2023-02-02T01:59:02.505Z,2.13
2023-02-02T02:01:29.307Z,2.55
2023-02-02T02:03:56.944Z,1.85
2023-02-02T02:06:25.921Z,2.63
2023-02-02T02:09:00.626Z,2.33
2023-02-02T02:11:27.774Z,2.45
2023-02-02T02:14:15.671Z,4.20
2023-02-02T02:16:46.902Z,1.65
2023-02-02T02:19:28.803Z,3.25
2023-02-02T02:22:37.386Z,3.25
2023-02-02T02:25:30.947Z,1.52
2023-02-02T02:28:30.685Z,1.77
2023-02-02T02:31:07.103Z,1.65
2023-02-02T02:34:08.743Z,3.00
2023-02-02T02:36:58.766Z,2.00
2023-02-02T02:39:28.908Z,2.63
2023-02-02T02:42:00.295Z,2.20
2023-02-02T02:44:29.220Z,2.10
2023-02-02T02:46:57.087Z,2.55
2023-02-02T02:49:23.942Z,1.90
2023-02-02T02:51:55.308Z,2.10
2023-02-02T02:54:35.521Z,2.28
2023-02-02T02:57:13.659Z,2.30
2023-02-02T03:00:00.639Z,2.20
2023-02-02T03:02:51.090Z,2.55
2023-02-02T03:05:41.568Z,1.58
2023-02-02T03:08:18.658Z,2.88
2023-02-02T03:10:49.624Z,1.73
2023-02-02T03:13:17.246Z,1.10
2023-02-02T03:15:45.689Z,2.10
2023-02-02T03:18:15.328Z,1.58
2023-02-02T03:20:44.934Z,2.30
2023-02-02T03:23:13.886Z,2.17
2023-02-02T03:25:41.233Z,2.42
2023-02-02T03:28:07.959Z,2.85
2023-02-02T03:30:34.885Z,1.98
2023-02-02T03:33:01.614Z,3.03
2023-02-02T03:35:28.390Z,2.72
2023-02-02T03:37:55.127Z,2.05
2023-02-02T03:40:21.838Z,2.08
2023-02-02T03:42:49.110Z,1.95
2023-02-02T03:45:16.017Z,2.85
2023-02-02T03:47:42.672Z,2.63
2023-02-02T03:50:10.097Z,1.75
2023-02-02T03:52:36.886Z,1.95
2023-02-02T03:55:03.888Z,2.03
2023-02-02T03:57:30.500Z,1.40
2023-02-02T03:59:57.185Z,2.67
2023-02-02T04:02:23.971Z,2.55
2023-02-02T04:04:50.775Z,2.72
2023-02-02T04:07:17.579Z,1.55
2023-02-02T04:09:44.385Z,1.15
2023-02-02T04:12:11.093Z,1.92
2023-02-02T04:14:37.777Z,1.83
2023-02-02T04:17:05.151Z,1.88
2023-02-02T04:19:32.083Z,1.80
2023-02-02T04:21:58.789Z,1.60
2023-02-02T04:24:25.581Z,1.75
2023-02-02T04:26:52.546Z,2.05
2023-02-02T04:29:19.334Z,2.15
2023-02-02T04:31:46.030Z,2.53
2023-02-02T04:34:12.828Z,1.90
2023-02-02T04:36:39.561Z,1.80
2023-02-02T04:39:06.223Z,1.50
2023-02-02T04:41:33.054Z,1.70
2023-02-02T04:43:59.714Z,1.98
2023-02-02T04:46:28.031Z,1.38
2023-02-02T04:48:54.783Z,1.55
2023-02-02T04:51:22.112Z,1.70
2023-02-02T04:53:48.819Z,2.03
2023-02-02T04:56:18.543Z,1.45
2023-02-02T04:58:46.075Z,2.38
2023-02-02T05:01:18.389Z,2.20
2023-02-02T05:03:45.883Z,1.77
2023-02-02T05:06:15.557Z,1.65
2023-02-02T05:08:45.807Z,2.80
2023-02-02T05:11:14.936Z,1.52
2023-02-02T05:13:49.094Z,1.77
2023-02-02T05:16:16.081Z,2.42
2023-02-02T05:18:43.737Z,1.90
2023-02-02T05:21:10.407Z,2.30
2023-02-02T05:23:37.373Z,2.30
2023-02-02T05:26:04.649Z,2.15
2023-02-02T05:28:31.565Z,2.78
2023-02-02T05:30:58.337Z,1.90
2023-02-02T05:33:25.326Z,2.33
2023-02-02T05:35:52.848Z,2.00
2023-02-02T05:38:19.592Z,3.70
2023-02-02T05:40:48.887Z,2.80
2023-02-02T05:43:15.632Z,2.00
2023-02-02T05:45:42.756Z,2.20
2023-02-02T05:48:14.055Z,3.05
2023-02-02T05:50:44.524Z,2.13
2023-02-02T05:53:14.017Z,1.65
2023-02-02T05:55:40.840Z,3.97
2023-02-02T05:58:07.549Z,2.20
2023-02-02T06:00:34.277Z,3.13
2023-02-02T06:03:01.249Z,2.30
2023-02-02T06:05:27.904Z,3.20
2023-02-02T06:07:54.558Z,2.42
2023-02-02T06:10:21.204Z,2.15
2023-02-02T06:12:47.862Z,2.60
2023-02-02T06:15:14.717Z,3.45
2023-02-02T06:17:41.697Z,2.58
2023-02-02T06:20:08.918Z,2.97
2023-02-02T06:22:35.637Z,2.60
2023-02-02T06:25:05.453Z,2.70
2023-02-02T06:27:32.350Z,2.60
2023-02-02T06:29:59.244Z,3.05
2023-02-02T06:32:28.300Z,1.92
2023-02-02T06:34:55.226Z,1.00
2023-02-02T06:37:22.052Z,1.13
2023-02-02T06:39:48.762Z,1.33
2023-02-02T06:42:21.205Z,2.15
2023-02-02T06:44:48.645Z,1.27
2023-02-02T06:47:15.352Z,1.33
2023-02-02T06:49:42.022Z,0.65
2023-02-02T06:52:08.706Z,1.58
2023-02-02T06:54:35.423Z,1.05
2023-02-02T06:57:02.140Z,1.50
2023-02-02T06:59:28.944Z,2.03
2023-02-02T07:01:55.740Z,1.40
2023-02-02T07:04:22.557Z,1.58
2023-02-02T07:06:49.245Z,1.33
2023-02-02T07:09:15.922Z,1.45
2023-02-02T07:11:45.559Z,1.30
2023-02-02T07:14:12.718Z,1.42
2023-02-02T07:16:39.385Z,1.42
2023-02-02T07:19:06.109Z,1.30
2023-02-02T07:21:36.337Z,1.35
2023-02-02T07:24:04.682Z,0.82
2023-02-02T07:26:31.474Z,0.95
2023-02-02T07:28:58.335Z,1.17
2023-02-02T07:31:26.860Z,1.40
2023-02-02T07:33:54.499Z,1.10
2023-02-02T07:36:23.970Z,1.10
2023-02-02T07:38:54.333Z,1.20
2023-02-02T07:41:21.758Z,1.30
2023-02-02T07:43:49.425Z,1.60
2023-02-02T07:46:17.521Z,1.60
2023-02-02T07:48:44.371Z,1.05
2023-02-02T07:51:16.383Z,1.20
2023-02-02T07:56:20.436Z,1.85
2023-02-02T07:58:47.594Z,1.63
2023-02-02T08:01:15.967Z,1.55
2023-02-02T08:03:44.120Z,1.55
2023-02-02T08:06:26.426Z,1.77
2023-02-02T08:11:21.958Z,2.75
2023-02-02T08:13:53.168Z,0.90
2023-02-02T08:16:21.100Z,1.10
2023-02-02T08:18:48.681Z,1.90
2023-02-02T08:21:17.508Z,1.48
2023-02-02T08:23:45.607Z,1.20
2023-02-02T08:26:31.336Z,1.52
2023-02-02T08:29:01.318Z,1.77
2023-02-02T08:31:31.409Z,1.67
2023-02-02T08:33:58.608Z,1.55
2023-02-02T08:36:27.302Z,1.33
2023-02-02T08:38:54.436Z,1.10
2023-02-02T08:41:25.144Z,1.10
2023-02-02T08:43:52.187Z,1.70
2023-02-02T08:46:21.069Z,1.23
2023-02-02T08:48:48.429Z,1.73
2023-02-02T08:51:18.441Z,2.03
2023-02-02T08:53:46.457Z,1.73
2023-02-02T08:56:19.149Z,1.33
2023-02-02T08:58:58.701Z,1.60
2023-02-02T09:01:30.710Z,1.77
2023-02-02T09:04:06.002Z,1.70
2023-02-02T09:06:35.066Z,1.83
2023-02-02T09:09:02.995Z,1.65
2023-02-02T09:11:29.954Z,1.65
2023-02-02T09:13:58.690Z,1.65
2023-02-02T09:16:26.932Z,1.70
2023-02-02T09:18:55.528Z,1.13
2023-02-02T09:21:22.317Z,1.30
2023-02-02T09:23:50.575Z,1.52
2023-02-02T09:26:26.153Z,1.55
2023-02-02T09:29:04.189Z,2.60
2023-02-02T09:31:34.120Z,1.77
2023-02-02T09:34:03.060Z,2.10
2023-02-02T09:36:30.278Z,1.48
2023-02-02T09:38:57.062Z,1.95
2023-02-02T09:41:51.310Z,2.70
2023-02-02T09:44:46.621Z,1.45
2023-02-02T09:47:41.237Z,2.05
2023-02-02T09:50:39.753Z,1.77
2023-02-02T09:53:14.639Z,1.50
2023-02-02T09:55:48.657Z,1.33
2023-02-02T09:58:53.007Z,1.88
2023-02-02T10:01:24.787Z,1.48
2023-02-02T10:04:04.358Z,2.25
2023-02-02T10:06:40.064Z,1.38
2023-02-02T10:09:31.119Z,1.75
2023-02-02T10:12:21.119Z,1.60
2023-02-02T10:15:13.148Z,1.67
2023-02-02T10:17:55.689Z,2.15
2023-02-02T10:20:46.035Z,2.20
2023-02-02T10:23:40.615Z,1.95
2023-02-02T10:26:21.189Z,2.03
2023-02-02T10:29:09.265Z,1.55
2023-02-02T10:31:54.846Z,1.60
2023-02-02T10:34:55.596Z,1.75
2023-02-02T10:37:39.945Z,1.63
2023-02-02T10:40:30.348Z,1.60
2023-02-02T10:43:31.099Z,1.60
2023-02-02T10:45:59.607Z,1.60
2023-02-02T10:48:35.503Z,1.50
2023-02-02T10:51:13.054Z,2.65
2023-02-02T10:53:43.577Z,1.35
2023-02-02T10:56:13.735Z,1.50
2023-02-02T10:58:51.895Z,2.08
2023-02-02T11:01:22.737Z,1.90
2023-02-02T11:04:10.131Z,1.50
2023-02-02T11:06:49.459Z,1.70
2023-02-02T11:09:30.428Z,1.80
2023-02-02T11:12:20.534Z,2.28
2023-02-02T11:14:53.663Z,1.80
2023-02-02T11:17:23.369Z,1.77
2023-02-02T11:19:50.876Z,1.60
2023-02-02T11:22:28.577Z,1.85
2023-02-02T11:24:57.119Z,1.42
2023-02-02T11:27:28.000Z,1.77
2023-02-02T11:29:59.264Z,1.30
2023-02-02T11:32:28.751Z,1.90
2023-02-02T11:35:08.080Z,1.67
2023-02-02T11:37:36.632Z,1.25
2023-02-02T11:40:24.452Z,1.10
2023-02-02T11:42:52.714Z,1.10
2023-02-02T11:45:29.121Z,1.75
2023-02-02T11:48:20.525Z,1.60
2023-02-02T11:50:55.840Z,1.63
2023-02-02T11:53:26.958Z,1.52
2023-02-02T11:55:55.017Z,1.50
2023-02-02T11:58:27.197Z,3.47
2023-02-02T12:01:03.872Z,1.67
2023-02-02T12:03:40.130Z,1.67
2023-02-02T12:06:25.021Z,1.73
2023-02-02T12:08:58.242Z,2.08
2023-02-02T12:12:05.980Z,1.63
2023-02-02T12:14:49.508Z,2.20
2023-02-02T12:17:38.802Z,1.27
2023-02-02T12:20:34.990Z,1.05
2023-02-02T12:23:31.724Z,1.30
2023-02-02T12:26:04.710Z,1.30
2023-02-02T12:29:00.478Z,1.52
2023-02-02T12:31:30.471Z,1.50
2023-02-02T12:34:06.500Z,2.20
2023-02-02T12:36:47.957Z,2.05
2023-02-02T12:39:20.734Z,1.05
2023-02-02T12:42:21.822Z,2.30
2023-02-02T12:45:10.761Z,1.30
2023-02-02T12:47:45.368Z,2.08
2023-02-02T12:50:36.255Z,1.98
2023-02-02T12:53:28.953Z,1.63
2023-02-02T12:56:13.371Z,1.70
2023-02-02T12:58:52.145Z,1.70
2023-02-02T13:01:35.068Z,4.32
2023-02-02T13:04:13.948Z,2.65
2023-02-02T13:07:06.920Z,1.88
2023-02-02T13:09:43.441Z,2.00
2023-02-02T13:12:13.198Z,1.73
2023-02-02T13:14:54.873Z,1.55
2023-02-02T13:17:42.754Z,1.48
2023-02-02T13:20:39.930Z,1.70
2023-02-02T13:23:19.034Z,1.63
2023-02-02T13:26:01.511Z,2.13
2023-02-02T13:28:44.887Z,2.00
2023-02-02T13:31:42.536Z,1.58
2023-02-02T13:34:18.930Z,1.33
2023-02-02T13:36:54.627Z,1.30
2023-02-02T13:39:28.426Z,1.50
2023-02-02T13:41:56.021Z,1.45
2023-02-02T13:44:32.682Z,1.60
2023-02-02T13:47:16.888Z,1.17
2023-02-02T13:49:50.930Z,1.40
2023-02-02T13:52:56.269Z,1.70
2023-02-02T13:55:49.347Z,1.38
2023-02-02T13:59:01.222Z,2.67
2023-02-02T14:01:30.260Z,2.20
2023-02-02T14:03:58.213Z,2.15
2023-02-02T14:06:26.928Z,2.42
2023-02-02T14:09:01.283Z,2.28
2023-02-02T14:11:45.018Z,1.55
2023-02-02T14:14:33.687Z,2.20
2023-02-02T14:17:04.829Z,1.88
2023-02-02T14:19:34.586Z,2.05
2023-02-02T14:22:10.371Z,1.70
2023-02-02T14:24:38.968Z,1.85
2023-02-02T14:27:28.914Z,1.88
2023-02-02T14:29:55.632Z,1.33
2023-02-02T14:32:25.424Z,2.22
2023-02-02T14:34:55.232Z,1.20
2023-02-02T14:37:24.789Z,1.98
2023-02-02T14:40:06.931Z,1.35
2023-02-02T14:43:23.177Z,1.70
2023-02-02T14:46:12.578Z,1.73
2023-02-02T14:48:48.029Z,1.60
2023-02-02T14:51:21.229Z,2.83
2023-02-02T14:54:02.577Z,1.17
2023-02-02T14:56:51.367Z,1.80
2023-02-02T14:59:32.928Z,1.50
2023-02-02T15:02:17.157Z,1.92
2023-02-02T15:04:47.741Z,2.20
2023-02-02T15:07:23.515Z,2.70
2023-02-02T15:09:51.875Z,2.10
2023-02-02T15:12:24.635Z,2.00
2023-02-02T15:15:10.631Z,1.90
2023-02-02T15:18:02.706Z,1.90
2023-02-02T15:20:42.912Z,1.45
2023-02-02T15:23:34.131Z,2.10
2023-02-02T15:26:09.344Z,1.85
2023-02-02T15:29:08.241Z,1.40
2023-02-02T15:31:43.501Z,1.80
2023-02-02T15:34:29.397Z,2.53
2023-02-02T15:37:00.017Z,2.75
2023-02-02T15:39:44.676Z,2.63
2023-02-02T15:42:53.103Z,2.85
2023-02-02T15:45:33.219Z,3.30
2023-02-02T15:48:01.575Z,2.97
2023-02-02T15:50:28.397Z,3.00
2023-02-02T15:52:55.736Z,3.38
2023-02-02T15:55:33.500Z,4.03
2023-02-02T15:58:01.301Z,3.38
2023-02-02T16:00:33.417Z,4.35
2023-02-02T16:05:44.058Z,3.30
2023-02-02T16:08:19.618Z,3.35
2023-02-02T16:10:49.428Z,2.65
2023-02-02T16:13:27.440Z,2.80
2023-02-02T16:15:59.406Z,2.60
2023-02-02T16:18:26.702Z,3.45
2023-02-02T16:20:54.973Z,2.80
2023-02-02T16:23:32.783Z,3.20
2023-02-02T16:26:05.549Z,4.43
2023-02-02T16:28:33.141Z,4.57
2023-02-02T16:31:01.670Z,3.47
2023-02-02T16:33:29.909Z,4.18
2023-02-02T16:35:57.705Z,3.90
2023-02-02T16:38:35.038Z,30.88
2023-02-02T16:41:13.802Z,7.60
2023-02-02T16:43:42.653Z,5.10
2023-02-02T16:46:12.760Z,6.88
2023-02-02T16:48:45.579Z,5.63
2023-02-02T16:51:18.884Z,4.95
2023-02-02T16:54:07.742Z,5.60
2023-02-02T16:56:43.546Z,4.93
2023-02-02T16:59:29.385Z,5.50
2023-02-02T17:02:01.959Z,6.20
2023-02-02T17:04:34.010Z,7.20
2023-02-02T17:07:14.348Z,5.90
2023-02-02T17:09:42.341Z,5.80
2023-02-02T17:12:35.377Z,6.60
2023-02-02T17:15:17.500Z,7.43
2023-02-02T17:20:13.073Z,7.45
2023-02-02T17:22:42.927Z,7.60
2023-02-02T17:25:17.072Z,8.52
2023-02-02T17:27:45.144Z,8.38
2023-02-02T17:30:18.107Z,7.28
2023-02-02T17:32:44.960Z,8.68
2023-02-02T17:35:24.169Z,8.32
2023-02-02T17:37:53.062Z,9.07
2023-02-02T17:40:24.007Z,8.25
2023-02-02T17:42:52.993Z,9.40
2023-02-02T17:45:33.940Z,8.30
2023-02-02T17:48:01.595Z,8.05
2023-02-02T17:50:29.327Z,8.05
2023-02-02T17:52:56.028Z,7.68
2023-02-02T17:55:27.243Z,7.40
2023-02-02T17:57:54.420Z,7.22
2023-02-02T18:00:24.301Z,7.10
2023-02-02T18:02:56.743Z,8.40
2023-02-02T18:05:23.946Z,9.65
2023-02-02T18:07:50.765Z,14.38
2023-02-02T18:10:19.210Z,10.60
2023-02-02T18:12:45.911Z,9.10
2023-02-02T18:15:13.707Z,6.95
2023-02-02T18:17:41.030Z,6.93
2023-02-02T18:20:09.016Z,7.45
2023-02-02T18:22:35.817Z,9.65
2023-02-02T18:25:04.195Z,8.15
2023-02-02T18:27:31.023Z,6.22
2023-02-02T18:29:57.836Z,11.18
2023-02-02T18:32:25.026Z,8.00
2023-02-02T18:34:55.950Z,7.93
2023-02-02T18:37:25.623Z,8.88
2023-02-02T18:39:53.873Z,7.30
2023-02-02T18:42:20.820Z,9.10
2023-02-02T18:44:47.474Z,9.77
2023-02-02T18:47:14.165Z,9.35
2023-02-02T18:49:40.797Z,9.05
2023-02-02T18:52:07.777Z,9.43
2023-02-02T18:54:35.698Z,9.85
2023-02-02T18:57:02.442Z,7.60
2023-02-02T18:59:29.638Z,7.85
2023-02-02T19:01:56.340Z,7.40
2023-02-02T19:04:23.012Z,8.18
2023-02-02T19:07:08.398Z,10.55
2023-02-02T19:09:35.056Z,9.80
2023-02-02T19:12:02.174Z,8.23
2023-02-02T19:14:33.198Z,6.90
2023-02-02T19:17:12.003Z,7.20
2023-02-02T19:19:40.503Z,7.80
2023-02-02T19:22:18.212Z,6.75
2023-02-02T19:24:44.942Z,8.07
2023-02-02T19:27:20.294Z,7.15
2023-02-02T19:29:50.650Z,7.95
2023-02-02T19:32:21.855Z,8.40
2023-02-02T19:34:51.892Z,25.20
2023-02-02T19:37:25.688Z,14.93
2023-02-02T19:40:14.235Z,9.55
2023-02-02T19:42:47.190Z,9.82
2023-02-02T19:47:54.845Z,9.18
2023-02-02T19:50:27.694Z,9.68
2023-02-02T19:52:55.636Z,10.00
2023-02-02T19:55:28.317Z,10.15
2023-02-02T19:58:20.156Z,9.82
2023-02-02T20:00:50.656Z,10.93
2023-02-02T20:03:27.768Z,10.05
2023-02-02T20:05:56.910Z,9.00
2023-02-02T20:08:32.055Z,10.32
2023-02-02T20:11:01.384Z,10.25
2023-02-02T20:13:44.879Z,10.98
2023-02-02T20:16:23.804Z,8.02
2023-02-02T20:18:57.702Z,9.48
2023-02-02T20:21:38.140Z,9.48
2023-02-02T20:24:17.202Z,9.90
2023-02-02T20:26:44.839Z,10.32
2023-02-02T20:29:37.062Z,10.85
2023-02-02T20:32:08.215Z,10.27
2023-02-02T20:34:43.357Z,9.73
2023-02-02T20:37:12.866Z,9.18
2023-02-02T20:40:01.647Z,9.05
2023-02-02T20:42:30.198Z,8.98
2023-02-02T20:44:58.072Z,8.32
2023-02-02T20:47:24.853Z,8.23
2023-02-02T20:49:51.635Z,7.95
2023-02-02T20:52:23.523Z,8.30
2023-02-02T20:57:17.930Z,7.75
2023-02-02T20:59:44.720Z,8.30
2023-02-02T21:02:18.824Z,9.27
2023-02-02T21:04:48.199Z,7.78
2023-02-02T21:07:23.068Z,8.35
2023-02-02T21:09:50.877Z,7.78
2023-02-02T21:12:18.295Z,7.93
2023-02-02T21:14:46.089Z,7.88
2023-02-02T21:17:15.580Z,8.68
2023-02-02T21:19:43.447Z,7.68
2023-02-02T21:22:10.773Z,8.52
2023-02-02T21:24:37.941Z,8.25
2023-02-02T21:27:04.845Z,8.75
2023-02-02T21:29:32.906Z,9.20
2023-02-02T21:32:02.770Z,10.07
2023-02-02T21:34:30.592Z,8.90
2023-02-02T21:36:58.206Z,9.55
2023-02-02T21:39:34.006Z,9.95
2023-02-02T21:42:11.382Z,10.70
2023-02-02T21:44:47.217Z,12.50
2023-02-02T21:47:26.243Z,12.57
2023-02-02T21:49:58.820Z,11.40
2023-02-02T21:52:29.643Z,12.40
2023-02-02T21:54:56.694Z,14.35
2023-02-02T21:57:36.378Z,13.50
2023-02-02T22:00:33.752Z,13.27
2023-02-02T22:03:00.772Z,15.02
2023-02-02T22:05:37.203Z,14.65
2023-02-02T22:08:20.767Z,13.43
2023-02-02T22:10:49.026Z,14.50
2023-02-02T22:13:23.759Z,15.05
2023-02-02T22:15:53.055Z,13.45
2023-02-02T22:18:24.982Z,14.52
2023-02-02T22:20:54.359Z,16.17
2023-02-02T22:23:23.339Z,15.25
2023-02-02T22:25:55.362Z,16.13
2023-02-02T22:28:25.916Z,14.60
2023-02-02T22:30:54.185Z,14.45
2023-02-02T22:33:21.902Z,15.55
2023-02-02T22:35:48.863Z,16.13
2023-02-02T22:38:21.061Z,16.75
2023-02-02T22:40:49.195Z,15.27
2023-02-02T22:43:16.820Z,16.30
2023-02-02T22:45:44.526Z,16.75
2023-02-02T22:48:12.811Z,16.33
2023-02-02T22:50:39.947Z,16.58
2023-02-02T22:53:06.678Z,18.20
2023-02-02T22:55:33.868Z,17.63
2023-02-02T22:58:00.557Z,18.50
2023-02-02T23:00:36.124Z,18.60
2023-02-02T23:03:02.919Z,19.08
2023-02-02T23:05:29.841Z,18.42
2023-02-02T23:07:56.723Z,18.48
2023-02-02T23:10:26.357Z,18.63
2023-02-02T23:12:55.176Z,19.30
2023-02-02T23:15:22.042Z,20.00
2023-02-02T23:17:49.101Z,19.58
2023-02-02T23:20:16.657Z,19.77
2023-02-02T23:22:43.495Z,20.25
2023-02-02T23:25:10.743Z,17.48
2023-02-02T23:27:37.610Z,19.65
2023-02-02T23:30:07.396Z,19.08
2023-02-02T23:32:34.335Z,18.95
2023-02-02T23:35:01.036Z,17.73
2023-02-02T23:37:27.689Z,19.10
2023-02-02T23:39:54.402Z,18.40
2023-02-02T23:42:21.166Z,20.65
2023-02-02T23:44:48.000Z,18.25
2023-02-02T23:47:14.733Z,18.08
2023-02-02T23:49:41.459Z,19.23
2023-02-02T23:52:08.149Z,18.17
2023-02-02T23:54:35.800Z,18.90
2023-02-02T23:57:02.777Z,17.98
2023-02-02T23:59:29.523Z,18.38
